createdAt,value
2022-10-21T00:01:01.145Z,6.20
2022-10-21T00:05:15.462Z,5.63
2022-10-21T00:09:30.994Z,4.97
2022-10-21T00:13:44.705Z,5.80
2022-10-21T00:17:58.839Z,4.87
2022-10-21T00:22:12.538Z,6.18
2022-10-21T00:26:27.568Z,6.05
2022-10-21T00:30:45.367Z,6.15
2022-10-21T00:34:59.427Z,6.27
2022-10-21T00:39:13.136Z,5.75
2022-10-21T00:43:29.413Z,4.28
2022-10-21T00:52:09.280Z,4.15
2022-10-21T00:56:26.700Z,5.40
2022-10-21T01:00:42.008Z,5.80
2022-10-21T01:04:59.460Z,6.35
2022-10-21T01:09:14.733Z,6.45
2022-10-21T01:13:39.306Z,6.32
2022-10-21T01:18:03.055Z,5.97
2022-10-21T01:22:29.066Z,6.60
2022-10-21T01:27:06.187Z,5.95
2022-10-21T01:31:27.428Z,6.03
2022-10-21T01:35:46.724Z,5.05
2022-10-21T01:40:06.831Z,5.60
2022-10-21T01:44:27.316Z,4.50
2022-10-21T01:48:48.705Z,6.22
2022-10-21T01:53:07.433Z,6.07
2022-10-21T01:57:23.663Z,6.38
2022-10-21T02:01:39.903Z,6.40
2022-10-21T02:05:55.267Z,6.20
2022-10-21T02:10:10.249Z,5.30
2022-10-21T02:14:28.820Z,5.20
2022-10-21T02:18:42.538Z,5.72
2022-10-21T02:22:57.692Z,6.25
2022-10-21T02:27:11.683Z,4.60
2022-10-21T02:31:49.729Z,4.40
2022-10-21T02:36:11.733Z,4.32
2022-10-21T02:40:31.638Z,5.90
2022-10-21T02:44:45.278Z,5.30
2022-10-21T02:48:59.072Z,6.05
2022-10-21T02:53:14.380Z,6.18
2022-10-21T02:57:29.437Z,4.30
2022-10-21T03:01:43.141Z,5.05
2022-10-21T03:05:57.026Z,5.53
2022-10-21T03:10:11.519Z,4.80
2022-10-21T03:14:26.962Z,5.10
2022-10-21T03:18:40.619Z,5.85
2022-10-21T03:22:54.464Z,5.82
2022-10-21T03:27:08.373Z,5.70
2022-10-21T03:31:23.853Z,6.32
2022-10-21T03:35:37.660Z,6.32
2022-10-21T03:39:51.298Z,5.83
2022-10-21T03:44:04.912Z,6.97
2022-10-21T03:48:19.966Z,6.22
2022-10-21T03:52:34.048Z,6.57
2022-10-21T03:56:48.061Z,7.25
2022-10-21T04:01:01.878Z,6.82
2022-10-21T04:05:17.351Z,6.40
2022-10-21T04:09:31.150Z,6.83
2022-10-21T04:13:44.835Z,5.85
2022-10-21T04:17:58.672Z,5.45
2022-10-21T04:22:13.829Z,6.30
2022-10-21T04:26:27.487Z,6.28
2022-10-21T04:30:41.335Z,6.10
2022-10-21T04:34:55.007Z,6.80
2022-10-21T04:39:10.139Z,5.95
2022-10-21T04:43:23.771Z,5.20
2022-10-21T04:47:37.746Z,6.88
2022-10-21T04:51:51.662Z,6.27
2022-10-21T04:56:07.954Z,6.63
2022-10-21T05:00:21.741Z,5.65
2022-10-21T05:04:35.448Z,6.50
2022-10-21T05:08:49.445Z,5.72
2022-10-21T05:13:05.971Z,5.05
2022-10-21T05:17:19.750Z,6.73
2022-10-21T05:21:33.772Z,6.72
2022-10-21T05:25:48.214Z,6.65
2022-10-21T05:30:04.236Z,6.97
2022-10-21T05:34:18.200Z,6.90
2022-10-21T05:38:32.675Z,6.68
2022-10-21T05:42:46.803Z,6.00
2022-10-21T05:47:01.820Z,7.30
2022-10-21T05:51:15.469Z,4.65
2022-10-21T05:55:29.055Z,7.07
2022-10-21T05:59:42.819Z,6.50
2022-10-21T06:03:57.918Z,5.85
2022-10-21T06:08:11.599Z,5.30
2022-10-21T06:12:25.534Z,5.53
2022-10-21T06:16:39.396Z,5.80
2022-10-21T06:20:54.469Z,7.38
2022-10-21T06:25:09.023Z,7.18
2022-10-21T06:29:23.637Z,6.90
2022-10-21T06:33:37.761Z,5.75
2022-10-21T06:37:52.941Z,7.20
2022-10-21T06:42:06.662Z,7.23
2022-10-21T06:46:34.192Z,6.32
2022-10-21T06:50:47.862Z,6.63
2022-10-21T06:55:03.391Z,5.38
2022-10-21T06:59:17.304Z,6.73
2022-10-21T07:03:30.973Z,5.60
2022-10-21T07:07:45.025Z,6.10
2022-10-21T07:12:01.907Z,6.43
2022-10-21T07:16:19.100Z,5.80
2022-10-21T07:20:34.960Z,6.90
2022-10-21T07:24:48.754Z,7.33
2022-10-21T07:29:05.187Z,6.45
2022-10-21T07:33:19.056Z,6.60
2022-10-21T07:37:33.095Z,4.50
2022-10-21T07:41:49.170Z,6.67
2022-10-21T07:46:06.822Z,5.90
2022-10-21T07:50:21.000Z,7.28
2022-10-21T07:54:34.761Z,6.80
2022-10-21T07:58:49.023Z,5.95
2022-10-21T08:03:04.151Z,7.15
2022-10-21T08:07:18.043Z,7.10
2022-10-21T08:11:34.614Z,5.57
2022-10-21T08:15:51.165Z,6.68
2022-10-21T08:20:07.315Z,6.05
2022-10-21T08:24:21.597Z,4.97
2022-10-21T08:28:35.528Z,4.88
2022-10-21T08:32:49.764Z,5.05
2022-10-21T08:37:04.840Z,4.63
2022-10-21T08:41:43.327Z,6.57
2022-10-21T08:46:00.564Z,4.72
2022-10-21T08:50:17.563Z,6.60
2022-10-21T08:54:42.330Z,6.80
2022-10-21T08:58:56.358Z,7.13
2022-10-21T09:03:24.661Z,5.95
2022-10-21T09:07:48.446Z,5.23
2022-10-21T09:12:09.349Z,7.10
2022-10-21T09:16:31.834Z,4.45
2022-10-21T09:20:56.126Z,8.07
2022-10-21T09:25:20.947Z,6.95
2022-10-21T09:29:38.787Z,6.65
2022-10-21T09:33:59.511Z,6.80
2022-10-21T09:38:18.237Z,7.18
2022-10-21T09:42:48.309Z,7.22
2022-10-21T09:47:16.618Z,6.60
2022-10-21T09:51:34.675Z,6.30
2022-10-21T09:55:53.074Z,6.47
2022-10-21T10:00:11.216Z,6.20
2022-10-21T10:04:33.126Z,6.90
2022-10-21T10:08:47.772Z,6.43
2022-10-21T10:13:01.947Z,6.57
2022-10-21T10:17:30.597Z,6.37
2022-10-21T10:21:48.057Z,6.40
2022-10-21T10:26:01.873Z,6.60
2022-10-21T10:30:16.699Z,6.47
2022-10-21T10:34:35.531Z,7.53
2022-10-21T10:38:57.705Z,7.22
2022-10-21T10:43:16.409Z,6.93
2022-10-21T10:47:34.373Z,6.87
2022-10-21T10:51:49.980Z,6.90
2022-10-21T10:56:21.806Z,7.80
2022-10-21T11:00:41.746Z,7.67
2022-10-21T11:05:16.521Z,7.28
2022-10-21T11:09:34.354Z,6.40
2022-10-21T11:13:49.923Z,6.80
2022-10-21T11:18:24.059Z,6.60
2022-10-21T11:22:45.950Z,7.10
2022-10-21T11:27:04.891Z,7.60
2022-10-21T11:31:27.587Z,6.80
2022-10-21T11:35:56.706Z,6.75
2022-10-21T11:40:19.563Z,6.97
2022-10-21T11:44:57.162Z,7.27
2022-10-21T11:49:37.246Z,7.13
2022-10-21T11:54:06.196Z,7.07
2022-10-21T11:58:35.180Z,7.22
2022-10-21T12:03:17.045Z,6.00
2022-10-21T12:07:46.335Z,6.43
2022-10-21T12:12:07.537Z,7.47
2022-10-21T12:16:26.060Z,7.30
2022-10-21T12:20:40.594Z,7.05
2022-10-21T12:25:02.329Z,8.32
2022-10-21T12:29:20.187Z,9.20
2022-10-21T12:33:39.864Z,9.70
2022-10-21T12:38:19.702Z,8.13
2022-10-21T12:42:35.337Z,9.90
2022-10-21T12:46:52.615Z,9.83
2022-10-21T12:51:09.334Z,9.20
2022-10-21T12:55:27.165Z,7.70
2022-10-21T12:59:43.852Z,9.60
2022-10-21T13:03:57.744Z,11.45
2022-10-21T13:08:27.379Z,10.23
2022-10-21T13:12:41.323Z,11.40
2022-10-21T13:17:16.272Z,43.33
2022-10-21T13:21:55.311Z,12.25
2022-10-21T13:26:25.357Z,9.93
2022-10-21T13:30:41.655Z,9.67
2022-10-21T13:35:19.371Z,7.57
2022-10-21T13:39:35.708Z,10.88
2022-10-21T13:43:52.773Z,10.77
2022-10-21T13:48:09.011Z,9.52
2022-10-21T13:52:28.823Z,9.98
2022-10-21T13:56:43.684Z,11.87
2022-10-21T14:00:59.102Z,11.98
2022-10-21T14:05:32.473Z,12.23
2022-10-21T14:09:50.430Z,8.57
2022-10-21T14:14:08.756Z,11.27
2022-10-21T14:18:32.408Z,9.32
2022-10-21T14:22:52.461Z,8.80
2022-10-21T14:27:09.725Z,12.07
2022-10-21T14:31:23.962Z,10.20
2022-10-21T14:35:37.716Z,11.80
2022-10-21T14:39:51.449Z,9.13
2022-10-21T14:44:15.703Z,13.15
2022-10-21T14:48:31.956Z,12.10
2022-10-21T14:52:47.583Z,11.30
2022-10-21T14:57:03.889Z,9.63
2022-10-21T15:01:21.561Z,11.50
2022-10-21T15:05:38.774Z,11.38
2022-10-21T15:10:01.008Z,7.93
2022-10-21T15:14:22.045Z,10.05
2022-10-21T15:18:44.320Z,10.40
2022-10-21T15:22:58.930Z,10.87
2022-10-21T15:27:18.955Z,12.23
2022-10-21T15:31:32.985Z,12.50
2022-10-21T15:36:00.337Z,12.75
2022-10-21T15:40:14.496Z,12.43
2022-10-21T15:44:30.140Z,13.10
2022-10-21T15:48:44.200Z,14.05
2022-10-21T15:52:59.406Z,13.13
2022-10-21T15:57:17.191Z,12.93
2022-10-21T16:01:31.229Z,13.13
2022-10-21T16:05:49.050Z,14.40
2022-10-21T16:10:14.102Z,13.50
2022-10-21T16:14:30.098Z,14.18
2022-10-21T16:18:48.614Z,13.55
2022-10-21T16:33:53.792Z,12.82
2022-10-21T16:38:08.206Z,13.17
2022-10-21T16:42:22.113Z,13.32
2022-10-21T16:46:38.473Z,14.73
2022-10-21T16:50:53.601Z,12.47
2022-10-21T16:55:11.681Z,11.85
2022-10-21T16:59:25.859Z,10.50
2022-10-21T17:03:39.718Z,10.98
2022-10-21T17:07:55.416Z,12.23
2022-10-21T17:12:11.808Z,13.13
2022-10-21T17:16:25.773Z,12.45
2022-10-21T17:20:39.597Z,13.07
2022-10-21T17:24:55.030Z,13.55
2022-10-21T17:29:15.816Z,13.60
2022-10-21T17:33:29.632Z,13.93
2022-10-21T17:37:43.377Z,13.93
2022-10-21T17:41:58.587Z,13.15
2022-10-21T17:46:17.907Z,11.30
2022-10-21T17:50:32.777Z,12.63
2022-10-21T17:54:46.643Z,14.13
2022-10-21T17:59:01.788Z,13.63
2022-10-21T18:03:18.260Z,13.97
2022-10-21T18:07:32.239Z,14.27
2022-10-21T18:11:46.121Z,13.77
2022-10-21T18:16:05.676Z,13.70
2022-10-21T18:20:19.998Z,12.73
2022-10-21T18:24:34.213Z,12.00
2022-10-21T18:28:50.690Z,12.95
2022-10-21T18:33:05.883Z,11.53
2022-10-21T18:37:20.385Z,11.50
2022-10-21T18:41:34.253Z,11.30
2022-10-21T18:45:48.331Z,9.97
2022-10-21T18:50:03.814Z,8.95
2022-10-21T18:54:17.626Z,11.52
2022-10-21T18:58:31.628Z,10.10
2022-10-21T19:02:45.505Z,9.43
2022-10-21T19:07:00.593Z,9.88
2022-10-21T19:11:14.448Z,9.07
2022-10-21T19:15:28.276Z,9.57
2022-10-21T19:19:42.227Z,9.00
2022-10-21T19:23:59.969Z,9.15
2022-10-21T19:28:13.855Z,9.50
2022-10-21T19:32:27.644Z,9.65
2022-10-21T19:36:41.539Z,9.85
2022-10-21T19:40:57.307Z,10.63
2022-10-21T19:45:16.882Z,10.73
2022-10-21T19:49:30.744Z,9.73
2022-10-21T19:53:45.179Z,10.20
2022-10-21T19:58:00.398Z,8.13
2022-10-21T20:02:14.127Z,9.27
2022-10-21T20:06:29.907Z,8.43
2022-10-21T20:10:45.577Z,10.77
2022-10-21T20:15:01.459Z,7.10
2022-10-21T20:19:15.327Z,7.55
2022-10-21T20:23:39.282Z,6.70
2022-10-21T20:27:53.065Z,6.22
2022-10-21T20:32:08.399Z,7.10
2022-10-21T20:36:23.894Z,6.90
2022-10-21T20:40:37.925Z,6.57
2022-10-21T20:44:51.636Z,6.93
2022-10-21T20:49:08.619Z,6.55
2022-10-21T20:53:22.539Z,6.10
2022-10-21T20:57:38.333Z,6.70
2022-10-21T21:01:52.395Z,6.95
2022-10-21T21:06:08.391Z,6.57
2022-10-21T21:10:25.374Z,6.13
2022-10-21T21:14:39.600Z,6.43
2022-10-21T21:18:57.954Z,6.93
2022-10-21T21:23:13.184Z,6.60
2022-10-21T21:27:32.710Z,6.82
2022-10-21T21:31:49.045Z,7.00
2022-10-21T21:36:04.704Z,8.03
2022-10-21T21:40:24.410Z,8.30
2022-10-21T21:44:44.022Z,8.32
2022-10-21T21:49:08.343Z,6.70
2022-10-21T21:53:25.549Z,6.45
2022-10-21T21:57:42.754Z,6.40
2022-10-21T22:01:59.459Z,6.60
2022-10-21T22:06:21.260Z,6.83
2022-10-21T22:10:38.075Z,7.30
2022-10-21T22:15:05.137Z,7.28
2022-10-21T22:19:28.313Z,8.13
2022-10-21T22:23:42.664Z,8.07
2022-10-21T22:27:56.322Z,8.52
2022-10-21T22:32:12.692Z,9.23
2022-10-21T22:36:27.130Z,7.80
2022-10-21T22:40:40.921Z,8.02
2022-10-21T22:44:54.707Z,8.35
2022-10-21T22:49:10.829Z,7.10
2022-10-21T22:53:24.785Z,8.23
2022-10-21T22:57:38.607Z,8.00
2022-10-21T23:01:55.471Z,8.57
2022-10-21T23:06:12.098Z,7.82
2022-10-21T23:10:27.965Z,7.80
2022-10-21T23:14:42.069Z,8.37
2022-10-21T23:18:56.987Z,7.55
2022-10-21T23:23:13.641Z,8.23
2022-10-21T23:27:31.846Z,7.50
2022-10-21T23:31:45.698Z,7.60
2022-10-21T23:35:59.553Z,8.00
2022-10-21T23:40:17.924Z,8.25
2022-10-21T23:44:31.899Z,8.30
2022-10-21T23:48:45.531Z,7.95
2022-10-21T23:52:59.351Z,8.32
2022-10-21T23:57:14.350Z,8.33
